sensor_id;sensor_type;location;lat;lon;timestamp;pressure;altitude;pressure_sealevel;temperature;humidity
46456;BME280;64052;47.466;9.094;2023-03-03T00:04:33;95835.41;;;4.34;64.58
46456;BME280;64052;47.466;9.094;2023-03-03T00:09:34;95836.34;;;4.33;64.80
46456;BME280;64052;47.466;9.094;2023-03-03T00:14:36;95839.03;;;4.32;65.03
46456;BME280;64052;47.466;9.094;2023-03-03T00:19:38;95842.88;;;4.26;65.25
46456;BME280;64052;47.466;9.094;2023-03-03T00:24:40;95840.91;;;4.30;65.81
46456;BME280;64052;47.466;9.094;2023-03-03T00:30:01;95840.63;;;4.34;65.32
46456;BME280;64052;47.466;9.094;2023-03-03T00:35:26;95840.06;;;4.29;65.33
46456;BME280;64052;47.466;9.094;2023-03-03T00:40:35;95834.94;;;4.28;65.38
46456;BME280;64052;47.466;9.094;2023-03-03T00:45:43;95834.84;;;4.29;65.68
46456;BME280;64052;47.466;9.094;2023-03-03T00:50:46;95821.78;;;4.29;65.73
46456;BME280;64052;47.466;9.094;2023-03-03T00:55:49;95830.19;;;4.34;65.46
46456;BME280;64052;47.466;9.094;2023-03-03T01:00:52;95830.09;;;4.36;66.05
46456;BME280;64052;47.466;9.094;2023-03-03T01:05:59;95832.22;;;4.44;66.45
46456;BME280;64052;47.466;9.094;2023-03-03T01:11:14;95822.53;;;4.31;66.71
46456;BME280;64052;47.466;9.094;2023-03-03T01:16:19;95823.09;;;4.36;66.01
46456;BME280;64052;47.466;9.094;2023-03-03T01:21:20;95813.41;;;4.53;65.35
46456;BME280;64052;47.466;9.094;2023-03-03T01:26:22;95822.16;;;4.52;65.21
46456;BME280;64052;47.466;9.094;2023-03-03T01:31:23;95818.91;;;4.48;64.64
46456;BME280;64052;47.466;9.094;2023-03-03T01:36:26;95815.47;;;4.48;64.93
46456;BME280;64052;47.466;9.094;2023-03-03T01:41:30;95811.81;;;4.50;65.05
46456;BME280;64052;47.466;9.094;2023-03-03T01:52:37;95810.81;;;4.24;66.10
46456;BME280;64052;47.466;9.094;2023-03-03T01:57:43;95825.31;;;4.14;66.76
46456;BME280;64052;47.466;9.094;2023-03-03T02:02:46;95822.91;;;4.25;66.62
46456;BME280;64052;47.466;9.094;2023-03-03T02:07:49;95816.94;;;4.08;66.57
46456;BME280;64052;47.466;9.094;2023-03-03T02:12:53;95822.38;;;4.20;66.53
46456;BME280;64052;47.466;9.094;2023-03-03T02:17:58;95816.22;;;4.35;65.99
46456;BME280;64052;47.466;9.094;2023-03-03T02:28:12;95803.44;;;4.31;66.12
46456;BME280;64052;47.466;9.094;2023-03-03T02:33:14;95808.56;;;4.32;66.40
46456;BME280;64052;47.466;9.094;2023-03-03T02:43:33;95816.00;;;4.39;65.93
46456;BME280;64052;47.466;9.094;2023-03-03T02:48:37;95809.03;;;4.39;65.73
46456;BME280;64052;47.466;9.094;2023-03-03T02:53:39;95810.53;;;4.43;65.55
46456;BME280;64052;47.466;9.094;2023-03-03T02:58:41;95808.09;;;4.55;64.98
46456;BME280;64052;47.466;9.094;2023-03-03T03:03:43;95813.13;;;4.58;64.68
46456;BME280;64052;47.466;9.094;2023-03-03T03:08:44;95810.22;;;4.62;64.38
46456;BME280;64052;47.466;9.094;2023-03-03T03:13:46;95808.44;;;4.63;64.55
46456;BME280;64052;47.466;9.094;2023-03-03T03:18:48;95809.47;;;4.31;65.46
46456;BME280;64052;47.466;9.094;2023-03-03T03:23:50;95808.56;;;4.32;65.41
46456;BME280;64052;47.466;9.094;2023-03-03T03:28:52;95806.13;;;4.29;65.23
46456;BME280;64052;47.466;9.094;2023-03-03T03:33:54;95797.09;;;4.20;65.86
46456;BME280;64052;47.466;9.094;2023-03-03T03:38:57;95794.88;;;4.14;65.60
46456;BME280;64052;47.466;9.094;2023-03-03T03:43:59;95802.03;;;4.25;65.12
46456;BME280;64052;47.466;9.094;2023-03-03T03:49:01;95799.78;;;4.19;65.05
46456;BME280;64052;47.466;9.094;2023-03-03T03:54:03;95785.06;;;4.18;65.09
46456;BME280;64052;47.466;9.094;2023-03-03T03:59:08;95788.72;;;4.30;64.35
46456;BME280;64052;47.466;9.094;2023-03-03T04:04:11;95782.47;;;4.32;64.61
46456;BME280;64052;47.466;9.094;2023-03-03T04:09:13;95783.03;;;4.23;64.78
46456;BME280;64052;47.466;9.094;2023-03-03T04:14:15;95785.81;;;4.34;64.53
46456;BME280;64052;47.466;9.094;2023-03-03T04:19:17;95790.59;;;4.28;64.72
46456;BME280;64052;47.466;9.094;2023-03-03T04:24:19;95788.50;;;4.33;64.67
46456;BME280;64052;47.466;9.094;2023-03-03T04:29:23;95792.97;;;4.45;63.99
46456;BME280;64052;47.466;9.094;2023-03-03T04:34:24;95792.97;;;4.45;64.38
46456;BME280;64052;47.466;9.094;2023-03-03T04:39:28;95799.63;;;4.36;65.10
46456;BME280;64052;47.466;9.094;2023-03-03T04:44:31;95805.28;;;4.43;64.71
46456;BME280;64052;47.466;9.094;2023-03-03T04:49:33;95803.03;;;4.37;64.59
46456;BME280;64052;47.466;9.094;2023-03-03T04:54:35;95796.00;;;4.39;64.80
46456;BME280;64052;47.466;9.094;2023-03-03T04:59:37;95799.13;;;4.44;64.46
46456;BME280;64052;47.466;9.094;2023-03-03T05:04:38;95804.09;;;4.49;64.13
46456;BME280;64052;47.466;9.094;2023-03-03T05:09:40;95815.34;;;4.49;63.73
46456;BME280;64052;47.466;9.094;2023-03-03T05:14:41;95812.75;;;4.49;63.68
46456;BME280;64052;47.466;9.094;2023-03-03T05:19:43;95815.09;;;4.40;64.28
46456;BME280;64052;47.466;9.094;2023-03-03T05:24:44;95828.13;;;4.40;64.52
46456;BME280;64052;47.466;9.094;2023-03-03T05:29:46;95825.31;;;4.43;64.23
46456;BME280;64052;47.466;9.094;2023-03-03T05:34:47;95834.38;;;4.22;64.57
46456;BME280;64052;47.466;9.094;2023-03-03T05:39:49;95837.19;;;4.34;64.45
46456;BME280;64052;47.466;9.094;2023-03-03T05:44:51;95840.44;;;4.23;64.67
46456;BME280;64052;47.466;9.094;2023-03-03T05:49:52;95839.13;;;4.16;64.87
46456;BME280;64052;47.466;9.094;2023-03-03T05:54:53;95838.66;;;4.09;64.89
46456;BME280;64052;47.466;9.094;2023-03-03T05:59:55;95837.16;;;4.05;65.01
46456;BME280;64052;47.466;9.094;2023-03-03T06:04:57;95841.72;;;4.01;64.77
46456;BME280;64052;47.466;9.094;2023-03-03T06:09:58;95845.44;;;3.97;64.94
46456;BME280;64052;47.466;9.094;2023-03-03T06:15:01;95836.38;;;3.88;64.93
46456;BME280;64052;47.466;9.094;2023-03-03T06:20:02;95853.72;;;3.89;65.26
46456;BME280;64052;47.466;9.094;2023-03-03T06:25:04;95863.97;;;3.92;65.37
46456;BME280;64052;47.466;9.094;2023-03-03T06:30:06;95869.09;;;3.94;65.05
46456;BME280;64052;47.466;9.094;2023-03-03T06:35:08;95868.44;;;3.90;65.29
46456;BME280;64052;47.466;9.094;2023-03-03T06:40:10;95868.16;;;3.95;65.15
46456;BME280;64052;47.466;9.094;2023-03-03T06:45:12;95878.53;;;4.11;64.72
46456;BME280;64052;47.466;9.094;2023-03-03T06:50:17;95881.72;;;4.16;64.78
46456;BME280;64052;47.466;9.094;2023-03-03T06:55:21;95884.41;;;4.15;64.82
46456;BME280;64052;47.466;9.094;2023-03-03T07:00:26;95884.00;;;4.06;64.69
46456;BME280;64052;47.466;9.094;2023-03-03T07:05:31;95893.72;;;4.04;65.39
46456;BME280;64052;47.466;9.094;2023-03-03T07:10:32;95897.06;;;4.06;65.38
46456;BME280;64052;47.466;9.094;2023-03-03T07:15:35;95903.63;;;4.28;64.77
46456;BME280;64052;47.466;9.094;2023-03-03T07:20:39;95908.25;;;4.39;64.32
46456;BME280;64052;47.466;9.094;2023-03-03T07:25:41;95914.00;;;4.44;64.04
46456;BME280;64052;47.466;9.094;2023-03-03T07:30:43;95918.69;;;4.54;63.92
46456;BME280;64052;47.466;9.094;2023-03-03T07:35:45;95927.91;;;4.45;63.50
46456;BME280;64052;47.466;9.094;2023-03-03T07:40:53;95933.56;;;4.37;64.07
46456;BME280;64052;47.466;9.094;2023-03-03T07:51:18;95937.03;;;4.52;63.51
46456;BME280;64052;47.466;9.094;2023-03-03T08:06:47;95939.09;;;4.47;63.25
46456;BME280;64052;47.466;9.094;2023-03-03T08:12:09;95932.22;;;4.46;63.53
46456;BME280;64052;47.466;9.094;2023-03-03T08:17:19;95938.47;;;4.72;62.99
46456;BME280;64052;47.466;9.094;2023-03-03T08:22:30;95940.91;;;4.75;62.62
46456;BME280;64052;47.466;9.094;2023-03-03T08:27:33;95944.53;;;4.73;62.64
46456;BME280;64052;47.466;9.094;2023-03-03T08:32:34;95939.78;;;4.65;62.75
46456;BME280;64052;47.466;9.094;2023-03-03T08:37:36;95931.72;;;4.39;63.70
46456;BME280;64052;47.466;9.094;2023-03-03T08:42:38;95936.69;;;4.73;63.52
46456;BME280;64052;47.466;9.094;2023-03-03T08:47:39;95935.09;;;4.70;63.74
46456;BME280;64052;47.466;9.094;2023-03-03T08:52:41;95938.56;;;5.00;62.46
46456;BME280;64052;47.466;9.094;2023-03-03T08:57:42;95945.28;;;4.89;62.41
46456;BME280;64052;47.466;9.094;2023-03-03T09:02:44;95955.91;;;4.57;63.99
46456;BME280;64052;47.466;9.094;2023-03-03T09:07:47;95956.00;;;4.70;63.31
46456;BME280;64052;47.466;9.094;2023-03-03T09:12:48;95963.84;;;4.85;63.23
46456;BME280;64052;47.466;9.094;2023-03-03T09:17:50;95963.75;;;4.86;63.28
46456;BME280;64052;47.466;9.094;2023-03-03T09:22:52;95968.91;;;5.02;63.40
46456;BME280;64052;47.466;9.094;2023-03-03T09:27:54;95975.25;;;5.13;62.66
46456;BME280;64052;47.466;9.094;2023-03-03T09:32:56;95972.53;;;5.14;62.32
46456;BME280;64052;47.466;9.094;2023-03-03T09:37:58;95978.13;;;5.08;62.64
46456;BME280;64052;47.466;9.094;2023-03-03T09:43:03;95981.28;;;5.28;62.03
46456;BME280;64052;47.466;9.094;2023-03-03T10:32:23;95988.19;;;5.14;62.46
46456;BME280;64052;47.466;9.094;2023-03-03T10:37:30;95966.34;;;5.30;61.78
46456;BME280;64052;47.466;9.094;2023-03-03T10:58:45;95972.78;;;6.08;60.87
46456;BME280;64052;47.466;9.094;2023-03-03T11:04:14;95973.22;;;6.15;59.70
46456;BME280;64052;47.466;9.094;2023-03-03T11:14:48;95973.38;;;6.26;59.00
46456;BME280;64052;47.466;9.094;2023-03-03T11:25:29;95957.00;;;6.63;59.16
46456;BME280;64052;47.466;9.094;2023-03-03T11:30:42;95959.09;;;6.71;58.33
46456;BME280;64052;47.466;9.094;2023-03-03T11:41:07;95944.81;;;6.75;58.07
46456;BME280;64052;47.466;9.094;2023-03-03T11:46:18;95948.06;;;6.79;57.72
46456;BME280;64052;47.466;9.094;2023-03-03T11:56:45;95934.53;;;7.11;58.52
46456;BME280;64052;47.466;9.094;2023-03-03T12:01:56;95921.84;;;7.55;56.88
46456;BME280;64052;47.466;9.094;2023-03-03T12:12:28;95919.34;;;7.40;56.50
46456;BME280;64052;47.466;9.094;2023-03-03T12:28:13;95912.16;;;7.55;56.80
46456;BME280;64052;47.466;9.094;2023-03-03T12:39:10;95908.59;;;7.19;57.36
46456;BME280;64052;47.466;9.094;2023-03-03T12:49:33;95905.50;;;7.38;57.42
46456;BME280;64052;47.466;9.094;2023-03-03T13:05:34;95890.72;;;7.86;55.94
46456;BME280;64052;47.466;9.094;2023-03-03T13:16:13;95897.81;;;7.72;56.86
46456;BME280;64052;47.466;9.094;2023-03-03T13:26:29;95893.34;;;7.86;57.37
46456;BME280;64052;47.466;9.094;2023-03-03T13:31:39;95893.63;;;7.94;57.82
46456;BME280;64052;47.466;9.094;2023-03-03T13:37:02;95898.16;;;7.92;56.87
46456;BME280;64052;47.466;9.094;2023-03-03T13:42:15;95897.16;;;7.82;56.58
46456;BME280;64052;47.466;9.094;2023-03-03T13:47:57;95883.75;;;7.73;57.47
46456;BME280;64052;47.466;9.094;2023-03-03T13:53:17;95893.56;;;7.83;57.93
46456;BME280;64052;47.466;9.094;2023-03-03T14:19:27;95872.75;;;8.40;56.69
46456;BME280;64052;47.466;9.094;2023-03-03T14:25:04;95873.13;;;8.47;55.95
46456;BME280;64052;47.466;9.094;2023-03-03T14:30:40;95868.72;;;8.58;55.25
46456;BME280;64052;47.466;9.094;2023-03-03T14:35:49;95869.03;;;8.42;55.56
46456;BME280;64052;47.466;9.094;2023-03-03T14:51:32;95868.78;;;8.46;56.01
46456;BME280;64052;47.466;9.094;2023-03-03T15:02:09;95868.47;;;8.50;55.72
46456;BME280;64052;47.466;9.094;2023-03-03T15:07:36;95868.75;;;8.81;55.76
46456;BME280;64052;47.466;9.094;2023-03-03T15:12:40;95866.53;;;9.32;53.93
46456;BME280;64052;47.466;9.094;2023-03-03T15:39:33;95870.25;;;9.18;53.13
46456;BME280;64052;47.466;9.094;2023-03-03T15:50:42;95863.78;;;9.34;52.60
46456;BME280;64052;47.466;9.094;2023-03-03T15:56:01;95868.94;;;9.24;52.55
46456;BME280;64052;47.466;9.094;2023-03-03T16:06:29;95863.19;;;9.30;52.83
46456;BME280;64052;47.466;9.094;2023-03-03T16:11:46;95863.47;;;9.16;53.43
46456;BME280;64052;47.466;9.094;2023-03-03T16:27:23;95869.22;;;8.52;55.45
46456;BME280;64052;47.466;9.094;2023-03-03T16:33:08;95874.38;;;8.29;55.59
46456;BME280;64052;47.466;9.094;2023-03-03T16:38:31;95889.31;;;7.93;57.05
46456;BME280;64052;47.466;9.094;2023-03-03T16:43:59;95886.94;;;7.66;57.19
46456;BME280;64052;47.466;9.094;2023-03-03T16:49:18;95903.72;;;7.39;58.37
46456;BME280;64052;47.466;9.094;2023-03-03T17:05:10;95921.94;;;7.16;60.57
46456;BME280;64052;47.466;9.094;2023-03-03T17:10:20;95918.03;;;7.22;60.06
46456;BME280;64052;47.466;9.094;2023-03-03T17:20:57;95927.97;;;7.29;60.10
46456;BME280;64052;47.466;9.094;2023-03-03T17:31:19;95953.97;;;7.45;59.53
46456;BME280;64052;47.466;9.094;2023-03-03T17:36:40;95954.28;;;7.41;60.06
46456;BME280;64052;47.466;9.094;2023-03-03T17:47:12;95964.56;;;7.44;59.02
46456;BME280;64052;47.466;9.094;2023-03-03T18:03:27;95974.88;;;7.34;60.68
46456;BME280;64052;47.466;9.094;2023-03-03T18:20:06;95987.38;;;7.05;61.02
46456;BME280;64052;47.466;9.094;2023-03-03T18:25:15;95988.63;;;6.99;60.59
46456;BME280;64052;47.466;9.094;2023-03-03T18:35:42;95988.63;;;6.73;60.39
46456;BME280;64052;47.466;9.094;2023-03-03T18:41:04;95991.19;;;6.34;61.51
46456;BME280;64052;47.466;9.094;2023-03-03T19:01:47;96003.78;;;5.87;61.36
46456;BME280;64052;47.466;9.094;2023-03-03T19:07:02;96010.47;;;5.63;61.88
46456;BME280;64052;47.466;9.094;2023-03-03T19:12:09;96003.00;;;5.57;62.55
46456;BME280;64052;47.466;9.094;2023-03-03T19:27:28;96016.31;;;5.40;62.01
46456;BME280;64052;47.466;9.094;2023-03-03T19:32:47;96017.97;;;5.41;62.43
46456;BME280;64052;47.466;9.094;2023-03-03T19:48:59;96025.53;;;5.16;63.47
46456;BME280;64052;47.466;9.094;2023-03-03T19:59:24;96037.22;;;5.25;63.81
46456;BME280;64052;47.466;9.094;2023-03-03T20:04:33;96049.25;;;5.28;63.83
46456;BME280;64052;47.466;9.094;2023-03-03T20:14:54;96051.66;;;5.02;63.50
46456;BME280;64052;47.466;9.094;2023-03-03T20:25:31;96064.53;;;4.90;64.48
46456;BME280;64052;47.466;9.094;2023-03-03T20:30:44;96070.81;;;4.88;65.08
46456;BME280;64052;47.466;9.094;2023-03-03T20:51:43;96082.88;;;5.34;64.65
46456;BME280;64052;47.466;9.094;2023-03-03T21:02:18;96078.88;;;5.28;64.96
46456;BME280;64052;47.466;9.094;2023-03-03T21:07:24;96085.84;;;5.28;65.14
46456;BME280;64052;47.466;9.094;2023-03-03T21:12:28;96087.19;;;5.20;64.94
46456;BME280;64052;47.466;9.094;2023-03-03T21:17:30;96089.00;;;5.18;65.03
46456;BME280;64052;47.466;9.094;2023-03-03T21:22:32;96089.94;;;5.17;65.13
46456;BME280;64052;47.466;9.094;2023-03-03T21:27:34;96092.69;;;5.30;64.71
46456;BME280;64052;47.466;9.094;2023-03-03T21:32:41;96088.19;;;5.32;65.16
46456;BME280;64052;47.466;9.094;2023-03-03T21:37:48;96097.63;;;5.35;64.81
46456;BME280;64052;47.466;9.094;2023-03-03T21:42:53;96096.97;;;5.31;64.99
46456;BME280;64052;47.466;9.094;2023-03-03T21:47:55;96100.78;;;5.26;64.79
46456;BME280;64052;47.466;9.094;2023-03-03T21:52:56;96092.34;;;5.06;65.26
46456;BME280;64052;47.466;9.094;2023-03-03T21:57:58;96093.28;;;4.90;65.48
46456;BME280;64052;47.466;9.094;2023-03-03T22:03:00;96091.06;;;4.68;66.07
46456;BME280;64052;47.466;9.094;2023-03-03T22:08:01;96084.66;;;4.74;66.39
46456;BME280;64052;47.466;9.094;2023-03-03T22:13:03;96098.66;;;4.73;66.21
46456;BME280;64052;47.466;9.094;2023-03-03T22:18:04;96099.09;;;4.65;66.09
46456;BME280;64052;47.466;9.094;2023-03-03T22:23:06;96107.78;;;4.49;65.25
46456;BME280;64052;47.466;9.094;2023-03-03T22:28:08;96101.06;;;4.29;65.30
46456;BME280;64052;47.466;9.094;2023-03-03T22:33:09;96099.91;;;4.19;66.27
46456;BME280;64052;47.466;9.094;2023-03-03T22:38:11;96102.28;;;4.07;66.14
46456;BME280;64052;47.466;9.094;2023-03-03T22:43:12;96108.25;;;3.93;66.81
46456;BME280;64052;47.466;9.094;2023-03-03T22:48:14;96106.75;;;3.89;66.85
46456;BME280;64052;47.466;9.094;2023-03-03T22:53:15;96113.13;;;3.84;67.05
46456;BME280;64052;47.466;9.094;2023-03-03T22:58:18;96112.47;;;3.80;66.43
46456;BME280;64052;47.466;9.094;2023-03-03T23:03:20;96110.84;;;3.77;66.55
46456;BME280;64052;47.466;9.094;2023-03-03T23:08:21;96110.66;;;3.80;67.04
46456;BME280;64052;47.466;9.094;2023-03-03T23:13:23;96105.31;;;3.84;67.06
46456;BME280;64052;47.466;9.094;2023-03-03T23:18:25;96100.41;;;3.77;67.04
46456;BME280;64052;47.466;9.094;2023-03-03T23:23:27;96097.22;;;3.72;66.74
46456;BME280;64052;47.466;9.094;2023-03-03T23:28:28;96096.81;;;3.80;66.19
46456;BME280;64052;47.466;9.094;2023-03-03T23:33:30;96098.72;;;3.76;66.50
46456;BME280;64052;47.466;9.094;2023-03-03T23:38:31;96093.69;;;3.73;66.02
46456;BME280;64052;47.466;9.094;2023-03-03T23:43:33;96094.41;;;3.59;66.00
46456;BME280;64052;47.466;9.094;2023-03-03T23:48:34;96103.56;;;3.50;65.60
46456;BME280;64052;47.466;9.094;2023-03-03T23:53:35;96108.97;;;3.47;65.88
46456;BME280;64052;47.466;9.094;2023-03-03T23:58:37;96107.34;;;3.45;65.71
